Time;durP1;ratioP1;P1;durP2;ratioP2;P2;SDS_P1;SDS_P2;PMS_P1;PMS_P2;Temp;Humidity;BMP_temperature;BMP_pressure;BME280_temperature;BME280_humidity;BME280_pressure;Samples;Min_cycle;Max_cycle;Signal;HPM_P1;HPM_P2
2023/07/16 00:00:23;;;;;;;10.15;7.80;;;;;;;28.94;44.80;99550.72;4484634;32;33688;-66
2023/07/16 00:02:53;;;;;;;;;;;;;;;28.95;44.80;99557.06;4484832;32;33974;-63
2023/07/16 00:05:21;;;;;;;11.90;8.43;;;;;;;29.04;44.55;99544.47;4484509;32;34123;-63
2023/07/16 00:07:48;;;;;;;10.68;7.53;;;;;;;28.96;44.71;99558.75;4484363;32;34894;-72
2023/07/16 00:10:16;;;;;;;9.82;8.23;;;;;;;28.92;44.78;99552.91;4484714;32;34579;-69
2023/07/16 00:12:43;;;;;;;8.75;7.10;;;;;;;28.92;44.79;99546.59;4484302;32;33672;-64
2023/07/16 00:15:11;;;;;;;10.00;7.47;;;;;;;28.90;44.79;99543.28;4484359;32;33399;-71
2023/07/16 00:17:39;;;;;;;10.60;7.03;;;;;;;28.91;44.77;99550.41;4484320;32;34678;-72
2023/07/16 00:20:07;;;;;;;11.20;7.93;;;;;;;28.90;44.76;99549.59;4484120;32;35043;-67
2023/07/16 00:22:34;;;;;;;11.27;7.80;;;;;;;28.89;44.75;99544.37;4484250;32;34044;-72
2023/07/16 00:25:02;;;;;;;8.63;7.57;;;;;;;28.88;44.75;99546.31;4484294;32;33597;-71
2023/07/16 00:27:30;;;;;;;8.85;7.03;;;;;;;28.88;44.74;99546.31;4482857;32;33341;-73
2023/07/16 00:29:57;;;;;;;8.13;6.57;;;;;;;28.87;44.71;99539.16;4484127;32;34552;-67
2023/07/16 00:32:25;;;;;;;8.02;6.72;;;;;;;28.88;44.70;99542.75;4484296;32;34860;-70
2023/07/16 00:34:53;;;;;;;9.85;7.37;;;;;;;28.87;44.68;99546.59;4484020;32;33321;-68
2023/07/16 00:37:20;;;;;;;10.15;7.47;;;;;;;28.87;44.67;99543.84;4484069;32;33474;-71
2023/07/16 00:39:48;;;;;;;8.30;6.62;;;;;;;28.86;44.66;99537.50;4484019;32;33917;-68
2023/07/16 00:42:16;;;;;;;9.38;7.12;;;;;;;28.85;44.63;99538.59;4484220;32;33832;-72
2023/07/16 00:44:43;;;;;;;9.77;6.72;;;;;;;28.84;44.63;99536.94;4484357;32;33528;-69
2023/07/16 00:47:11;;;;;;;8.38;7.07;;;;;;;28.85;44.61;99540.53;4483996;32;34088;-73
2023/07/16 00:49:39;;;;;;;7.85;6.60;;;;;;;28.84;44.60;99544.37;4483795;32;33623;-72
2023/07/16 00:52:08;;;;;;;8.30;6.78;;;;;;;28.82;44.59;99536.41;4484168;32;33669;-72
2023/07/16 00:54:36;;;;;;;8.07;6.55;;;;;;;28.82;44.59;99536.41;4483074;32;33125;-72
2023/07/16 00:57:04;;;;;;;8.40;6.50;;;;;;;28.82;44.57;99527.31;4494456;31;33472;-66
2023/07/16 00:59:31;;;;;;;8.32;6.55;;;;;;;28.81;44.55;99525.69;4497567;31;34731;-71
2023/07/16 01:01:59;;;;;;;8.73;6.70;;;;;;;28.81;44.53;99522.94;4499536;31;34737;-68
2023/07/16 01:04:27;;;;;;;8.35;6.80;;;;;;;28.81;44.52;99525.69;4499399;31;34299;-72
2023/07/16 01:06:56;;;;;;;8.18;6.30;;;;;;;28.80;44.53;99518.53;4499730;31;34037;-68
2023/07/16 01:09:24;;;;;;;;;;;;;;;28.79;44.53;99523.22;4499825;31;33661;-69
2023/07/16 01:11:51;;;;;;;7.75;6.50;;;;;;;28.89;44.27;99517.75;4498206;31;33898;-68
2023/07/16 01:14:19;;;;;;;9.13;6.78;;;;;;;28.81;44.42;99522.94;4498188;31;33886;-67
2023/07/16 01:16:47;;;;;;;9.02;6.85;;;;;;;28.76;44.52;99515.50;4485148;31;33342;-66
2023/07/16 01:19:15;;;;;;;8.02;6.75;;;;;;;28.75;44.51;99513.84;4499103;31;34819;-70
2023/07/16 01:21:49;;;;;;;8.98;6.53;;;;;;;28.75;44.52;99515.78;4499468;31;33750;-67
2023/07/16 01:24:34;;;;;;;10.35;6.85;;;;;;;28.75;44.54;99518.53;4498137;31;33527;-68
2023/07/16 01:27:35;;;;;;;8.30;6.70;;;;;;;28.74;44.52;99517.69;4497879;31;34052;-71
2023/07/16 01:30:08;;;;;;;10.60;6.68;;;;;;;28.76;44.47;99520.16;4499223;31;33820;-69
2023/07/16 01:32:36;;;;;;;9.10;6.50;;;;;;;28.71;44.52;99515.47;4497921;31;34275;-70
2023/07/16 01:35:05;;;;;;;7.82;6.40;;;;;;;28.71;44.51;99527.28;4485028;31;33147;-71
2023/07/16 01:37:33;;;;;;;8.18;6.35;;;;;;;28.70;44.52;99522.06;4499092;31;34693;-69
2023/07/16 01:40:01;;;;;;;8.95;6.53;;;;;;;28.71;44.49;99510.81;4499008;31;34762;-70
2023/07/16 01:42:29;;;;;;;7.53;6.22;;;;;;;28.68;44.53;99519.59;4498893;31;33664;-70
2023/07/16 01:44:57;;;;;;;7.30;6.00;;;;;;;28.69;44.50;99515.75;4499051;31;33360;-72
2023/07/16 01:47:28;;;;;;;8.55;6.53;;;;;;;28.67;44.51;99522.59;4498974;31;33641;-70
2023/07/16 01:49:56;;;;;;;9.82;6.75;;;;;;;28.67;44.50;99517.09;4498001;31;33560;-70
2023/07/16 01:52:24;;;;;;;8.25;6.45;;;;;;;28.66;44.46;99509.97;4498730;31;34068;-69
2023/07/16 01:54:51;;;;;;;7.37;5.82;;;;;;;28.65;44.45;99514.63;4498688;31;34357;-68
2023/07/16 01:57:21;;;;;;;;;;;;;;;28.65;44.42;99514.63;4498977;31;33591;-72
2023/07/16 01:59:49;;;;;;;8.32;6.20;;;;;;;28.77;44.15;99510.81;4498709;31;34958;-71
2023/07/16 02:02:16;;;;;;;8.02;6.25;;;;;;;28.66;44.25;99508.03;4498917;31;33602;-66
2023/07/16 02:05:04;;;;;;;8.52;5.72;;;;;;;28.63;44.30;99505.00;4498634;31;34092;-69
2023/07/16 02:07:31;;;;;;;9.10;5.53;;;;;;;28.65;44.25;99511.91;4498774;31;33687;-72
2023/07/16 02:10:00;;;;;;;7.30;6.07;;;;;;;28.60;44.32;99506.37;4498557;31;34074;-70
2023/07/16 02:12:27;;;;;;;7.87;6.45;;;;;;;28.61;44.32;99507.22;4500438;31;33906;-70
2023/07/16 02:14:55;;;;;;;6.80;5.87;;;;;;;28.60;44.29;99505.56;4501138;31;33396;-72
2023/07/16 02:17:23;;;;;;;7.25;5.82;;;;;;;28.59;44.25;99493.75;4500912;31;34751;-72
2023/07/16 02:19:50;;;;;;;7.60;5.80;;;;;;;28.59;44.24;99492.94;4500783;31;34028;-67
2023/07/16 02:22:18;;;;;;;8.60;6.32;;;;;;;28.58;44.23;99500.31;4500841;31;34575;-67
2023/07/16 02:24:45;;;;;;;7.15;6.12;;;;;;;28.59;44.20;99503.91;4501036;31;33433;-68
2023/07/16 02:27:13;;;;;;;10.70;6.22;;;;;;;28.58;44.19;99492.09;4500826;31;34663;-71
2023/07/16 02:29:41;;;;;;;7.78;6.32;;;;;;;28.58;44.19;99496.75;4500569;31;33907;-72
2023/07/16 02:32:09;;;;;;;7.87;5.90;;;;;;;28.57;44.19;99495.94;4500771;31;33975;-67
2023/07/16 02:34:37;;;;;;;7.57;6.05;;;;;;;28.57;44.20;99487.69;4500874;31;33135;-72
2023/07/16 02:37:04;;;;;;;8.90;6.57;;;;;;;28.57;44.21;99500.59;4500668;31;34087;-71
2023/07/16 02:39:32;;;;;;;7.03;5.87;;;;;;;28.57;44.22;99497.84;4500769;31;34312;-69
2023/07/16 02:42:00;;;;;;;10.40;6.68;;;;;;;28.56;44.23;99505.25;4500700;31;34004;-69
2023/07/16 02:44:27;;;;;;;9.07;5.70;;;;;;;28.56;44.25;99498.97;4500564;31;33518;-64
2023/07/16 02:46:55;;;;;;;9.25;6.43;;;;;;;28.55;44.25;99497.31;4501014;31;33826;-66
2023/07/16 02:49:23;;;;;;;8.15;6.22;;;;;;;28.55;44.24;99498.13;4500694;31;35161;-66
2023/07/16 02:51:50;;;;;;;10.50;7.68;;;;;;;28.55;44.26;99505.53;4500601;31;33602;-63
2023/07/16 02:54:17;;;;;;;11.55;6.68;;;;;;;28.54;44.27;99496.50;4500723;31;33016;-69
2023/07/16 02:56:45;;;;;;;7.75;6.18;;;;;;;28.55;44.28;99505.53;4490628;31;34724;-69
2023/07/16 02:59:13;;;;;;;8.52;6.65;;;;;;;28.52;44.30;99501.41;4484660;32;33823;-71
2023/07/16 03:01:40;;;;;;;10.10;6.53;;;;;;;28.53;44.32;99499.47;4484891;32;34564;-71
2023/07/16 03:04:08;;;;;;;8.27;6.68;;;;;;;28.53;44.32;99502.22;4485143;32;33279;-71
2023/07/16 03:06:36;;;;;;;7.65;6.40;;;;;;;28.52;44.31;99497.84;4484549;32;33787;-69
2023/07/16 03:09:03;;;;;;;8.88;6.93;;;;;;;28.51;44.31;99502.50;4484833;32;34945;-71
2023/07/16 03:11:59;;;;;;;9.43;7.45;;;;;;;28.52;44.31;99503.31;4484738;32;34095;-71
2023/07/16 03:14:27;;;;;;;8.60;7.10;;;;;;;28.55;44.27;99509.12;4484888;32;33997;-71
2023/07/16 03:16:56;;;;;;;8.63;6.35;;;;;;;28.50;44.35;99505.53;4484808;32;33455;-64
2023/07/16 03:19:23;;;;;;;10.32;6.87;;;;;;;28.49;44.37;99515.66;4484962;32;33627;-63
2023/07/16 03:21:51;;;;;;;10.13;6.95;;;;;;;28.50;44.38;99516.50;4484170;32;33904;-64
2023/07/16 03:24:20;;;;;;;8.40;7.20;;;;;;;28.48;44.39;99517.56;4484853;32;33748;-63
2023/07/16 03:26:47;;;;;;;8.70;6.93;;;;;;;28.49;44.40;99512.91;4484962;32;33786;-66
2023/07/16 03:29:15;;;;;;;8.98;6.72;;;;;;;28.48;44.41;99511.25;4484785;32;33894;-63
2023/07/16 03:31:43;;;;;;;9.60;7.62;;;;;;;28.49;44.43;99521.13;4484608;32;34681;-64
2023/07/16 03:34:11;;;;;;;8.05;6.85;;;;;;;28.49;44.45;99521.13;4484924;32;33494;-66
2023/07/16 03:36:39;;;;;;;8.00;6.75;;;;;;;28.48;44.47;99520.31;4484862;32;34696;-63
2023/07/16 03:39:08;;;;;;;8.40;6.72;;;;;;;28.48;44.50;99520.31;4484783;32;34352;-66
2023/07/16 03:41:35;;;;;;;7.85;6.85;;;;;;;28.48;44.52;99516.75;4484574;32;35273;-63
2023/07/16 03:44:03;;;;;;;9.65;7.60;;;;;;;28.48;44.55;99523.06;4484898;32;33556;-63
2023/07/16 03:46:32;;;;;;;9.02;7.05;;;;;;;28.48;44.60;99520.31;4484677;32;34652;-66
2023/07/16 03:48:59;;;;;;;7.78;6.65;;;;;;;28.47;44.62;99515.94;4484587;32;34159;-64
2023/07/16 03:51:27;;;;;;;7.97;6.80;;;;;;;28.48;44.64;99533.22;4484820;32;34411;-63
2023/07/16 03:53:55;;;;;;;8.15;7.30;;;;;;;28.48;44.66;99530.47;4484733;32;33291;-71
2023/07/16 03:56:23;;;;;;;9.80;7.62;;;;;;;28.48;44.70;99527.72;4492204;31;33595;-72
2023/07/16 03:58:50;;;;;;;9.02;7.87;;;;;;;28.48;44.73;99533.22;4500347;31;34754;-63
2023/07/16 04:01:18;;;;;;;8.38;7.07;;;;;;;28.46;44.76;99528.00;4500126;31;34573;-73
2023/07/16 04:03:46;;;;;;;9.63;6.68;;;;;;;28.47;44.79;99526.91;4500264;31;34168;-70
2023/07/16 04:06:14;;;;;;;8.18;6.70;;;;;;;28.47;44.83;99539.81;4500256;31;33850;-72
2023/07/16 04:08:41;;;;;;;9.02;6.65;;;;;;;28.47;44.86;99537.88;4499032;31;34614;-72
2023/07/16 04:11:09;;;;;;;10.13;7.07;;;;;;;28.48;44.90;99546.94;4500168;31;34342;-71
2023/07/16 04:13:37;;;;;;;7.30;6.45;;;;;;;28.48;44.93;99541.44;4500209;31;33178;-72
2023/07/16 04:16:04;;;;;;;9.02;7.28;;;;;;;28.47;44.97;99546.13;4499972;31;34620;-67
2023/07/16 04:18:32;;;;;;;8.50;6.55;;;;;;;28.47;45.02;99546.13;4498904;31;34869;-68
2023/07/16 04:20:59;;;;;;;9.00;6.80;;;;;;;28.48;45.06;99544.19;4487890;31;34026;-70
2023/07/16 04:23:27;;;;;;;8.15;6.93;;;;;;;28.47;45.10;99548.88;4484357;32;34438;-72
2023/07/16 04:25:55;;;;;;;7.68;6.87;;;;;;;28.46;45.14;99536.25;4483048;32;34562;-71
2023/07/16 04:28:22;;;;;;;8.48;6.70;;;;;;;28.47;45.18;99543.37;4484212;32;35443;-71
2023/07/16 04:30:50;;;;;;;8.27;6.90;;;;;;;28.47;45.21;99548.03;4483826;32;33797;-71
2023/07/16 04:33:19;;;;;;;8.15;6.72;;;;;;;28.48;45.22;99552.44;4483451;32;33165;-71
2023/07/16 04:35:46;;;;;;;8.05;6.12;;;;;;;28.47;45.24;99554.34;4483907;32;33737;-68
2023/07/16 04:38:14;;;;;;;9.02;6.60;;;;;;;28.47;45.23;99557.09;4482826;32;34760;-71
2023/07/16 04:40:43;;;;;;;10.23;6.57;;;;;;;28.48;45.24;99560.66;4484073;32;34791;-70
2023/07/16 04:43:10;;;;;;;9.45;7.20;;;;;;;28.50;45.24;99560.41;4484127;32;33799;-69
2023/07/16 04:45:39;;;;;;;7.85;6.22;;;;;;;28.48;45.26;99560.66;4484041;32;33515;-69
2023/07/16 04:48:08;;;;;;;8.65;6.97;;;;;;;28.49;45.27;99559.56;4484150;32;33571;-66
2023/07/16 04:50:35;;;;;;;8.77;7.07;;;;;;;28.49;45.27;99559.56;4484047;32;33197;-65
2023/07/16 04:53:03;;;;;;;7.30;6.10;;;;;;;28.50;45.27;99560.41;4484048;32;33314;-63
2023/07/16 04:55:40;;;;;;;8.57;6.47;;;;;;;28.49;45.29;99559.56;4485839;31;34013;-64
2023/07/16 04:58:09;;;;;;;10.48;6.53;;;;;;;28.50;45.28;99563.97;4499478;31;34005;-68
2023/07/16 05:00:36;;;;;;;8.60;6.43;;;;;;;28.50;45.31;99563.97;4499725;31;33448;-67
2023/07/16 05:03:04;;;;;;;10.52;6.87;;;;;;;28.52;45.27;99564.53;4499623;31;33104;-70
2023/07/16 05:05:31;;;;;;;7.40;6.50;;;;;;;28.51;45.29;99571.12;4499738;31;33599;-66
2023/07/16 05:07:59;;;;;;;7.53;6.72;;;;;;;28.52;45.32;99563.72;4499543;31;33971;-69
2023/07/16 05:10:27;;;;;;;8.35;6.22;;;;;;;28.52;45.32;99567.28;4498215;31;33810;-69
2023/07/16 05:12:55;;;;;;;9.80;6.43;;;;;;;28.52;45.29;99563.72;4482495;31;33569;-72
2023/07/16 05:15:22;;;;;;;8.38;6.65;;;;;;;28.52;45.28;99563.72;4490328;31;34729;-66
2023/07/16 05:17:50;;;;;;;8.68;6.03;;;;;;;28.53;45.28;99568.09;4491061;31;33925;-70
2023/07/16 05:20:17;;;;;;;9.57;6.05;;;;;;;28.52;45.28;99575.50;4491533;31;33759;-71
2023/07/16 05:22:47;;;;;;;9.32;6.55;;;;;;;28.53;45.30;99568.91;4490697;31;33089;-69
2023/07/16 05:25:14;;;;;;;8.55;6.68;;;;;;;28.55;45.28;99571.41;4490661;31;33880;-70
2023/07/16 05:27:42;;;;;;;8.45;6.62;;;;;;;28.55;45.31;99558.53;4483282;32;33929;-71
2023/07/16 05:30:10;;;;;;;9.00;6.82;;;;;;;28.55;45.41;99558.53;4482248;32;33953;-72
2023/07/16 05:32:37;;;;;;;8.10;5.82;;;;;;;28.56;45.50;99560.16;4480697;32;33338;-72
2023/07/16 05:35:05;;;;;;;11.48;6.85;;;;;;;28.56;45.55;99564.84;4483021;32;33989;-70
2023/07/16 05:37:33;;;;;;;8.38;6.57;;;;;;;28.57;45.55;99555.50;4483194;32;34787;-66
2023/07/16 05:40:00;;;;;;;10.73;6.57;;;;;;;28.58;45.53;99563.47;4483312;32;33929;-69
2023/07/16 05:42:28;;;;;;;9.55;6.25;;;;;;;28.57;45.50;99564.56;4483026;32;34195;-72
2023/07/16 05:44:56;;;;;;;7.40;6.20;;;;;;;28.58;45.49;99568.94;4469382;32;33846;-70
2023/07/16 05:47:23;;;;;;;9.57;6.72;;;;;;;28.59;45.50;99575.28;4485372;32;34856;-69
2023/07/16 05:49:51;;;;;;;10.32;6.30;;;;;;;28.59;45.49;99575.28;4485535;32;33609;-71
2023/07/16 05:52:19;;;;;;;7.90;6.20;;;;;;;28.59;45.43;99581.59;4485110;32;33540;-70
2023/07/16 05:54:46;;;;;;;10.80;6.85;;;;;;;28.60;45.47;99574.19;4485322;32;34035;-69
2023/07/16 05:57:13;;;;;;;7.60;6.07;;;;;;;28.60;45.50;99568.69;4495772;31;34655;-72
2023/07/16 05:59:41;;;;;;;8.10;6.50;;;;;;;28.62;45.48;99575.56;4501002;31;33870;-72
2023/07/16 06:02:09;;;;;;;9.77;6.55;;;;;;;28.62;45.41;99582.97;4501032;31;33947;-68
2023/07/16 06:04:36;;;;;;;8.95;6.35;;;;;;;28.62;45.39;99577.47;4500984;31;33705;-72
2023/07/16 06:07:04;;;;;;;9.15;6.47;;;;;;;28.63;45.40;99576.38;4500948;31;34105;-69
2023/07/16 06:09:33;;;;;;;12.35;5.93;;;;;;;28.64;45.34;99583.56;4501284;31;33794;-70
2023/07/16 06:12:00;;;;;;;8.02;6.30;;;;;;;28.65;45.31;99571.47;4501199;31;34304;-72
2023/07/16 06:14:28;;;;;;;8.90;5.93;;;;;;;28.66;45.29;99579.44;4501170;31;33773;-63
2023/07/16 06:16:55;;;;;;;8.07;5.80;;;;;;;28.68;45.27;99573.69;4500933;31;33876;-72
2023/07/16 06:19:23;;;;;;;7.12;5.87;;;;;;;28.67;45.26;99578.31;4500857;31;34655;-67
2023/07/16 06:21:51;;;;;;;8.18;5.90;;;;;;;28.70;45.24;99575.06;4473717;31;33305;-69
2023/07/16 06:24:18;;;;;;;9.82;6.25;;;;;;;28.71;45.21;99575.88;4500709;31;34063;-67
2023/07/16 06:26:47;;;;;;;8.10;6.10;;;;;;;28.71;45.23;99581.37;4500865;31;33904;-69
2023/07/16 06:29:15;;;;;;;8.13;5.87;;;;;;;28.71;45.24;99576.72;4500917;31;33438;-71
2023/07/16 06:31:43;;;;;;;7.90;5.82;;;;;;;28.73;45.21;99582.78;4500519;31;32998;-72
2023/07/16 06:34:11;;;;;;;8.63;5.82;;;;;;;28.72;45.22;99578.38;4486847;31;33934;-71
2023/07/16 06:36:39;;;;;;;10.00;6.43;;;;;;;28.75;45.19;99582.50;4501092;31;33917;-68
2023/07/16 06:39:06;;;;;;;7.15;5.97;;;;;;;28.75;45.20;99579.75;4500632;31;33898;-69
2023/07/16 06:41:34;;;;;;;8.57;5.80;;;;;;;28.75;45.22;99578.94;4500751;31;33313;-70
2023/07/16 06:44:02;;;;;;;8.23;6.00;;;;;;;28.76;45.21;99575.09;4500812;31;34466;-71
2023/07/16 06:46:29;;;;;;;8.40;5.78;;;;;;;28.78;45.26;99581.16;4500540;31;34770;-73
2023/07/16 06:48:57;;;;;;;9.68;5.90;;;;;;;28.79;45.26;99580.03;4500601;31;35037;-68
2023/07/16 06:51:25;;;;;;;9.02;6.28;;;;;;;28.78;45.27;99572.91;4500759;31;33896;-70
2023/07/16 06:53:52;;;;;;;8.27;6.25;;;;;;;28.80;45.25;99576.19;4500634;31;33799;-69
2023/07/16 06:56:20;;;;;;;7.53;5.57;;;;;;;28.80;45.25;99585.25;4500191;31;34066;-71
2023/07/16 06:58:47;;;;;;;9.05;6.47;;;;;;;28.82;45.27;99582.25;4500472;31;33911;-72
2023/07/16 07:01:15;;;;;;;9.77;6.70;;;;;;;28.83;45.34;99586.66;4500350;31;33359;-71
2023/07/16 07:03:43;;;;;;;8.05;6.18;;;;;;;28.84;45.39;99582.81;4500647;31;35065;-68
2023/07/16 07:06:10;;;;;;;10.95;6.70;;;;;;;28.83;45.41;99587.47;4500650;31;33958;-70
2023/07/16 07:08:38;;;;;;;8.63;6.05;;;;;;;28.85;45.35;99587.19;4500712;31;34034;-72
2023/07/16 07:11:06;;;;;;;9.35;6.12;;;;;;;28.87;45.40;99582.28;4500628;31;33497;-70
2023/07/16 07:13:33;;;;;;;7.82;5.82;;;;;;;28.87;45.39;99585.84;4500481;31;33996;-62
2023/07/16 07:16:01;;;;;;;9.68;6.60;;;;;;;28.87;45.42;99577.62;4500675;31;33506;-71
2023/07/16 07:18:28;;;;;;;7.82;5.95;;;;;;;28.89;45.42;99575.41;4500621;31;33624;-68
2023/07/16 07:20:56;;;;;;;6.90;5.72;;;;;;;28.92;45.40;99585.06;4500889;31;33079;-70
2023/07/16 07:23:23;;;;;;;7.07;5.20;;;;;;;28.93;45.37;99589.44;4500546;31;34489;-70
2023/07/16 07:25:51;;;;;;;6.70;5.05;;;;;;;28.92;45.26;99588.63;4504476;31;33981;-63
2023/07/16 07:28:19;;;;;;;7.35;5.87;;;;;;;28.93;45.12;99578.47;4508258;31;33650;-63
2023/07/16 07:30:46;;;;;;;6.60;5.57;;;;;;;28.94;45.22;99580.09;4496260;31;34292;-63
2023/07/16 07:33:14;;;;;;;7.43;5.78;;;;;;;28.94;45.25;99580.09;4469000;32;33914;-67
2023/07/16 07:35:42;;;;;;;10.30;6.03;;;;;;;28.97;45.28;99588.66;4468955;32;33899;-70
2023/07/16 07:38:09;;;;;;;7.90;6.07;;;;;;;29.00;45.26;99587.28;4481061;32;34950;-70
2023/07/16 07:40:37;;;;;;;8.48;5.45;;;;;;;29.03;45.26;99569.47;4483785;32;33194;-65
2023/07/16 07:43:05;;;;;;;5.93;4.72;;;;;;;29.04;45.15;99574.69;4484418;32;33494;-64
2023/07/16 07:45:32;;;;;;;7.15;5.72;;;;;;;29.05;45.08;99570.00;4484341;32;34153;-65
2023/07/16 07:48:00;;;;;;;6.90;5.50;;;;;;;29.06;45.05;99569.75;4484599;32;33999;-64
2023/07/16 07:50:29;;;;;;;7.20;5.32;;;;;;;29.07;45.01;99573.31;4484636;32;33563;-64
2023/07/16 07:52:56;;;;;;;7.10;5.33;;;;;;;29.08;44.97;99572.22;4483551;32;33857;-63
2023/07/16 07:55:24;;;;;;;7.03;5.35;;;;;;;29.09;44.89;99568.38;4484236;32;33606;-64
2023/07/16 07:57:52;;;;;;;6.55;5.50;;;;;;;29.10;44.90;99576.38;4484043;32;33872;-65
2023/07/16 08:00:20;;;;;;;8.32;5.82;;;;;;;29.09;44.88;99577.44;4484355;32;32868;-64
2023/07/16 08:02:47;;;;;;;7.05;5.45;;;;;;;29.12;44.79;99576.09;4470173;32;34064;-65
2023/07/16 08:05:15;;;;;;;7.87;5.40;;;;;;;29.12;44.76;99574.16;4484433;32;34096;-63
2023/07/16 08:07:46;;;;;;;9.13;4.87;;;;;;;29.12;44.74;99568.66;4484289;32;33534;-63
2023/07/16 08:10:13;;;;;;;8.77;5.53;;;;;;;29.13;44.72;99573.06;4484459;32;34412;-64
2023/07/16 08:12:41;;;;;;;6.87;5.35;;;;;;;29.13;44.71;99564.81;4484500;32;33953;-70
2023/07/16 08:15:13;;;;;;;8.02;5.20;;;;;;;29.15;44.72;99573.63;4484442;32;34487;-64
2023/07/16 08:17:42;;;;;;;6.00;4.70;;;;;;;29.16;44.72;99574.44;4483712;32;33735;-71
2023/07/16 08:20:10;;;;;;;7.60;5.50;;;;;;;29.17;44.75;99567.84;4469554;32;33298;-62
2023/07/16 08:22:38;;;;;;;8.30;5.55;;;;;;;29.17;44.75;99568.69;4483262;32;34870;-63
2023/07/16 08:25:06;;;;;;;8.02;5.15;;;;;;;29.17;44.75;99576.91;4484478;32;33956;-64
2023/07/16 08:27:34;;;;;;;7.87;4.50;;;;;;;29.18;44.77;99567.56;4483966;32;35443;-66
2023/07/16 08:30:02;;;;;;;6.25;5.03;;;;;;;29.18;44.75;99567.56;4484131;32;33939;-63
2023/07/16 08:32:30;;;;;;;6.62;5.30;;;;;;;29.18;44.78;99570.31;4505587;31;34142;-67
2023/07/16 08:34:58;;;;;;;6.65;4.82;;;;;;;29.18;44.80;99567.56;4499596;31;33877;-64
2023/07/16 08:37:25;;;;;;;7.22;5.07;;;;;;;29.18;44.81;99564.81;4499953;31;33867;-63
2023/07/16 08:39:53;;;;;;;8.50;5.15;;;;;;;29.19;44.83;99568.41;4499716;31;34115;-64
2023/07/16 08:42:21;;;;;;;7.30;4.85;;;;;;;29.20;44.87;99564.56;4507360;31;34667;-66
2023/07/16 08:44:49;;;;;;;7.50;5.20;;;;;;;29.19;44.88;99569.25;4497171;31;34005;-63
2023/07/16 08:47:17;;;;;;;7.28;5.32;;;;;;;29.18;44.91;99564.81;4506924;31;33879;-63
2023/07/16 08:49:54;;;;;;;6.32;4.60;;;;;;;29.18;44.92;99564.81;4514608;31;33576;-64
2023/07/16 08:52:22;;;;;;;9.75;5.22;;;;;;;29.19;44.95;99563.75;4514670;31;35372;-66
2023/07/16 08:54:50;;;;;;;7.57;4.95;;;;;;;29.18;44.99;99564.81;4507989;31;33633;-63
2023/07/16 08:57:17;;;;;;;8.07;5.57;;;;;;;29.17;45.05;99567.84;4499654;31;34371;-63
2023/07/16 08:59:47;;;;;;;7.00;5.45;;;;;;;29.18;45.08;99577.75;4496198;31;34075;-64
2023/07/16 09:02:18;;;;;;;9.48;5.25;;;;;;;29.17;45.11;99579.66;4473277;32;34409;-63
2023/07/16 09:04:47;;;;;;;8.23;5.25;;;;;;;29.18;45.09;99577.75;4514749;31;35261;-62
2023/07/16 09:07:15;;;;;;;6.82;5.03;;;;;;;29.19;45.10;99573.87;4514377;31;33894;-62
2023/07/16 09:09:43;;;;;;;7.15;5.10;;;;;;;29.18;45.14;99581.31;4512912;31;33265;-61
2023/07/16 09:12:14;;;;;;;6.62;4.87;;;;;;;29.18;45.15;99575.00;4487592;31;33951;-63
2023/07/16 09:14:42;;;;;;;6.85;4.93;;;;;;;29.18;45.21;99575.00;4508080;31;34693;-64
2023/07/16 09:17:09;;;;;;;6.12;4.90;;;;;;;29.18;45.23;99580.50;4506034;31;34021;-62
2023/07/16 09:19:38;;;;;;;7.70;5.17;;;;;;;29.18;45.25;99572.25;4500064;31;33979;-64
2023/07/16 09:22:05;;;;;;;6.95;5.50;;;;;;;29.19;45.24;99569.25;4510713;31;33937;-73
2023/07/16 09:24:35;;;;;;;7.82;4.72;;;;;;;29.18;45.26;99564.00;4503240;31;33578;-64
2023/07/16 09:27:03;;;;;;;7.72;4.97;;;;;;;29.19;45.28;99569.25;4517323;31;33899;-65
2023/07/16 09:29:31;;;;;;;10.63;5.32;;;;;;;29.18;45.31;99564.81;4517217;31;33322;-63
2023/07/16 09:32:00;;;;;;;7.55;5.45;;;;;;;29.19;45.33;99568.41;4507134;31;33218;-63
2023/07/16 09:34:28;;;;;;;8.70;5.87;;;;;;;29.17;45.36;99560.44;4501175;31;34051;-69
2023/07/16 09:36:56;;;;;;;7.40;5.07;;;;;;;29.19;45.37;99568.41;4501167;31;33722;-63
2023/07/16 09:39:25;;;;;;;7.95;5.78;;;;;;;29.20;45.40;99570.06;4501254;31;33257;-65
2023/07/16 09:41:52;;;;;;;7.50;5.28;;;;;;;29.20;45.42;99568.16;4501077;31;33591;-64
2023/07/16 09:44:20;;;;;;;7.62;5.57;;;;;;;29.18;45.42;99564.81;4501227;31;33860;-69
2023/07/16 09:46:47;;;;;;;9.57;5.70;;;;;;;29.21;45.40;99566.22;4501242;31;34051;-63
2023/07/16 09:49:15;;;;;;;8.02;5.37;;;;;;;29.20;45.40;99562.66;4501260;31;33620;-63
2023/07/16 09:51:43;;;;;;;8.50;4.75;;;;;;;29.20;45.41;99562.66;4500848;31;34874;-63
2023/07/16 09:54:15;;;;;;;6.47;5.22;;;;;;;29.20;45.41;99562.66;4500910;31;33669;-68
2023/07/16 09:56:48;;;;;;;8.55;5.20;;;;;;;29.20;45.44;99570.06;4501105;31;33918;-63
2023/07/16 09:59:16;;;;;;;9.48;6.20;;;;;;;29.20;45.43;99573.63;4473849;31;33473;-64
2023/07/16 10:01:44;;;;;;;7.80;5.43;;;;;;;29.20;45.42;99570.88;4486893;31;33679;-64
2023/07/16 10:04:19;;;;;;;6.35;5.10;;;;;;;29.20;45.42;99559.91;4474306;31;33514;-64
2023/07/16 10:06:54;;;;;;;7.45;5.43;;;;;;;29.21;45.41;99563.47;4500909;31;34603;-64
2023/07/16 10:09:41;;;;;;;7.15;5.28;;;;;;;29.20;45.44;99557.16;4501329;31;33587;-64
2023/07/16 10:12:13;;;;;;;9.88;5.25;;;;;;;29.22;45.39;99551.37;4500836;31;33738;-63
2023/07/16 10:14:44;;;;;;;8.07;5.43;;;;;;;29.20;45.44;99553.59;4501048;31;33703;-69
2023/07/16 10:17:18;;;;;;;9.52;6.32;;;;;;;29.20;45.42;99557.16;4500917;31;33462;-63
2023/07/16 10:19:49;;;;;;;6.95;4.87;;;;;;;29.19;45.43;99552.75;4500910;31;33239;-63
2023/07/16 10:22:39;;;;;;;8.23;5.10;;;;;;;29.19;45.43;99560.16;4500623;31;33796;-63
2023/07/16 10:25:19;;;;;;;6.40;5.37;;;;;;;29.22;45.38;99548.63;4500688;31;34739;-64
2023/07/16 10:27:48;;;;;;;8.07;5.30;;;;;;;29.20;45.41;99546.16;4500615;31;34263;-63
2023/07/16 10:30:16;;;;;;;9.48;5.22;;;;;;;29.20;45.42;99551.66;4500772;31;33361;-63
2023/07/16 10:32:44;;;;;;;6.75;5.05;;;;;;;29.20;45.39;99548.91;4483631;31;33808;-64
2023/07/16 10:35:12;;;;;;;7.07;5.15;;;;;;;29.20;45.41;99546.16;4499890;31;33983;-63
2023/07/16 10:37:39;;;;;;;6.40;5.07;;;;;;;29.21;45.39;99549.72;4499981;31;33758;-64
2023/07/16 10:40:11;;;;;;;8.43;5.10;;;;;;;29.20;45.39;99543.41;4500622;31;34030;-63
2023/07/16 10:42:40;;;;;;;6.72;5.30;;;;;;;29.20;45.40;99543.41;4500814;31;34042;-63
2023/07/16 10:45:09;;;;;;;7.60;5.10;;;;;;;29.21;45.38;99549.72;4486664;31;34580;-63
2023/07/16 10:47:37;;;;;;;7.25;4.97;;;;;;;29.22;45.34;99552.19;4500582;31;33656;-64
2023/07/16 10:50:07;;;;;;;9.05;5.50;;;;;;;29.21;45.35;99547.81;4500857;31;33327;-63
2023/07/16 10:52:36;;;;;;;6.85;4.75;;;;;;;29.22;45.33;99551.37;4500752;31;33975;-67
2023/07/16 10:55:03;;;;;;;6.20;4.72;;;;;;;29.21;45.33;99544.25;4500640;31;33548;-64
2023/07/16 10:57:31;;;;;;;6.93;4.85;;;;;;;29.21;45.33;99550.56;4500660;31;34064;-65
2023/07/16 11:00:00;;;;;;;6.07;5.03;;;;;;;29.22;45.33;99548.63;4500800;31;34411;-63
2023/07/16 11:02:27;;;;;;;6.47;4.75;;;;;;;29.22;45.31;99549.44;4500609;31;33724;-67
2023/07/16 11:04:57;;;;;;;7.80;5.25;;;;;;;29.21;45.32;99542.31;4500542;31;34672;-64
2023/07/16 11:07:26;;;;;;;7.18;5.15;;;;;;;29.22;45.33;99538.47;4500658;31;33854;-63
2023/07/16 11:09:54;;;;;;;8.25;5.35;;;;;;;29.22;45.32;99540.38;4500920;31;33417;-64
2023/07/16 11:12:22;;;;;;;7.43;5.22;;;;;;;29.22;45.31;99540.38;4486530;31;33861;-65
2023/07/16 11:14:54;;;;;;;5.60;4.65;;;;;;;29.21;45.31;99528.56;4500528;31;33947;-66
2023/07/16 11:17:24;;;;;;;7.82;5.18;;;;;;;29.24;45.30;99540.97;4500550;31;33727;-63
2023/07/16 11:19:52;;;;;;;5.65;4.50;;;;;;;29.22;45.30;99543.97;4500738;31;33152;-63
2023/07/16 11:22:20;;;;;;;7.72;4.75;;;;;;;29.23;45.29;99534.59;4500308;31;33997;-63
2023/07/16 11:24:48;;;;;;;6.90;4.65;;;;;;;29.23;45.29;99531.03;4486214;31;34008;-63
2023/07/16 11:27:23;;;;;;;6.70;5.43;;;;;;;29.23;45.29;99536.53;4500515;31;34725;-63
2023/07/16 11:29:51;;;;;;;5.78;4.60;;;;;;;29.24;45.28;99538.22;4499388;31;34139;-65
2023/07/16 11:32:34;;;;;;;6.65;5.00;;;;;;;29.23;45.28;99536.53;4500177;31;34224;-64
2023/07/16 11:35:05;;;;;;;6.20;4.82;;;;;;;29.26;45.26;99530.50;4500386;31;33784;-63
2023/07/16 11:37:34;;;;;;;6.07;4.82;;;;;;;29.23;45.30;99536.53;4500459;31;34251;-64
2023/07/16 11:40:06;;;;;;;6.55;4.75;;;;;;;29.23;45.29;99531.03;4500343;31;33341;-63